MSC Vanessa — HOWD — position and weather

sailwx.info

Track history (hours):
 
Tides and Currents Weather Stations Pressure Air Temp Water Temp Dewpoint Dewpoint Depression Visibility Wind Speed Wind Dir Waves Ship Positions

MSC Vanessa

Last reported at 2016-May-25 05:32 UTC. Time now 2016-May-25 15:02 UTC.
Position N 27°26' W 079°26'.

Length 300 m; draft 11.1 m.

Type: Cargo ship. MMSI: 356946000.

Date/timePositionNaut miles runAvg speedWind from/ knotsBaromVisibWave heightAir tempDewpointWater temp
2016-May-25 05:32N 27°26' W 079°26'3215.9
2016-May-25 03:31N 26°56' W 079°39'1515.8
2016-May-25 02:33N 26°42' W 079°45'1615.9
2016-May-25 01:33N 26°27' W 079°51'1616.2
2016-May-25 00:33N 26°12' W 079°58'1010.2
2016-May-24 23:33N 26°06' W 080°07'1 1.3
2016-May-24 22:29N 26°04' W 080°07'0 0.0
2016-May-24 21:29N 26°04' W 080°07'0 0.0
2016-May-24 20:32N 26°04' W 080°07'0 0.0
2016-May-24 19:32N 26°04' W 080°07'0 0.0
2016-May-24 18:32N 26°04' W 080°07'0 0.0
2016-May-24 17:32N 26°04' W 080°07'0 0.0
2016-May-24 16:20N 26°04' W 080°07'0 0.0
2016-May-24 15:32N 26°04' W 080°07'0 0.0
2016-May-24 14:32N 26°04' W 080°07'0 0.0
2016-May-24 13:23N 26°04' W 080°07'0 0.0
2016-May-24 12:23N 26°04' W 080°07'0 0.0
2016-May-24 11:23N 26°04' W 080°07'0 0.0
2016-May-24 10:26N 26°04' W 080°07'0 0.0
2016-May-24 09:29N 26°04' W 080°07'1 1.6
2016-May-24 08:33N 26°06' W 080°06'5 4.8
2016-May-24 07:33N 26°06' W 080°01'1313.3
2016-May-24 06:33N 26°10' W 079°47'1716.3
2016-May-24 05:32N 26°14' W 079°29'2217.4
2016-May-24 04:17N 26°12' W 079°05'10 0.6
2016-May-23 11:32N 26°19' W 078°56'1 1.3
2016-May-23 10:33N 26°20' W 078°57'1 1.2
2016-May-23 09:33N 26°21' W 078°58'2 1.2
2016-May-23 08:15N 26°22' W 078°59'1 1.2
2016-May-23 07:33N 26°23' W 078°59'15 0.6
2016-May-22 05:22N 26°31' W 078°46'1 0.9
2016-May-22 04:33N 26°31' W 078°47'7 6.8
2016-May-22 03:33N 26°25' W 078°43'8 7.8
2016-May-22 02:33N 26°22' W 078°35'4216.9
2016-May-22 00:04N 26°04' W 077°53'  
2016-May-19 18:22N 19°12' W 063°02'12317.1
2016-May-19 11:09N 17°59' W 061°17'1016.9
2016-May-19 10:33N 17°52' W 061°09'  
Track history (hours):
 
Tides and Currents Weather Stations Pressure Air Temp Water Temp Dewpoint Dewpoint Depression Visibility Wind Speed Wind Dir Waves Ship Positions

MSC Vanessa

Last reported at 2016-May-25 05:32 UTC. Time now 2016-May-25 15:02 UTC.
Position N 27°26' W 079°26'.

Length 300 m; draft 11.1 m.

Type: Cargo ship. MMSI: 356946000.

Date/timePositionNaut miles runAvg speedWind from/ knotsBaromVisibWave heightAir tempDewpointWater temp
2016-May-25 05:32N 27°26' W 079°26'3215.9
2016-May-25 03:31N 26°56' W 079°39'1515.8
2016-May-25 02:33N 26°42' W 079°45'1615.9
2016-May-25 01:33N 26°27' W 079°51'1616.2
2016-May-25 00:33N 26°12' W 079°58'1010.2
2016-May-24 23:33N 26°06' W 080°07'1 1.3
2016-May-24 22:29N 26°04' W 080°07'0 0.0
2016-May-24 21:29N 26°04' W 080°07'0 0.0
2016-May-24 20:32N 26°04' W 080°07'0 0.0
2016-May-24 19:32N 26°04' W 080°07'0 0.0
2016-May-24 18:32N 26°04' W 080°07'0 0.0
2016-May-24 17:32N 26°04' W 080°07'0 0.0
2016-May-24 16:20N 26°04' W 080°07'0 0.0
2016-May-24 15:32N 26°04' W 080°07'0 0.0
2016-May-24 14:32N 26°04' W 080°07'0 0.0
2016-May-24 13:23N 26°04' W 080°07'0 0.0
2016-May-24 12:23N 26°04' W 080°07'0 0.0
2016-May-24 11:23N 26°04' W 080°07'0 0.0
2016-May-24 10:26N 26°04' W 080°07'0 0.0
2016-May-24 09:29N 26°04' W 080°07'1 1.6
2016-May-24 08:33N 26°06' W 080°06'5 4.8
2016-May-24 07:33N 26°06' W 080°01'1313.3
2016-May-24 06:33N 26°10' W 079°47'1716.3
2016-May-24 05:32N 26°14' W 079°29'2217.4
2016-May-24 04:17N 26°12' W 079°05'10 0.6
2016-May-23 11:32N 26°19' W 078°56'1 1.3
2016-May-23 10:33N 26°20' W 078°57'1 1.2
2016-May-23 09:33N 26°21' W 078°58'2 1.2
2016-May-23 08:15N 26°22' W 078°59'1 1.2
2016-May-23 07:33N 26°23' W 078°59'15 0.6
2016-May-22 05:22N 26°31' W 078°46'1 0.9
2016-May-22 04:33N 26°31' W 078°47'7 6.8
2016-May-22 03:33N 26°25' W 078°43'8 7.8
2016-May-22 02:33N 26°22' W 078°35'4216.9
2016-May-22 00:04N 26°04' W 077°53'  
2016-May-19 18:22N 19°12' W 063°02'12317.1
2016-May-19 11:09N 17°59' W 061°17'1016.9
2016-May-19 10:33N 17°52' W 061°09'  

Dump ship's entire track history